EDMA/AGB METAR and TAF weather

Enter ICAO airport designator
Station Type Date Time Source
EDMA METAR 2022/09/26 08:50 UTC NOAA

EDMA 260850Z 27005KT 230V300 9999 FEW015 BKN031 12/08 Q1010


Station Type Date Time Source
EDMA Decoded METAR 2022/09/26 08:50 UTC NOAA

Augsburg, Germany (EDMA) 48-26N 010-56E 463M
Sep 26, 2022 - 04:50 AM EDT / 2022.09.26 0850 UTC
Wind: from the W (270 degrees) at 6 MPH (5 KT) (direction variable):0
Visibility: greater than 7 mile(s):0
Sky conditions: mostly cloudy
Temperature: 53 F (12 C)
Dew Point: 46 F (8 C)
Relative Humidity: 76%
Pressure (altimeter): 29.83 in. Hg (1010 hPa)
ob: EDMA 260850Z 27005KT 230V300 9999 FEW015 BKN031 12/08 Q1010
cycle: 9

Station Type Date Time Source
EDMA TAF 2010/02/22 13:50 UTC NOAA

METAR EDMA 221350Z 23006KT CAVOK 10/02 Q0996

Example: see airport list